createdAt,value
2023-02-27T00:02:32.090Z,-5.10
2023-02-27T00:16:15.461Z,-5.70
2023-02-27T00:27:16.671Z,-5.70
2023-02-27T04:25:33.036Z,-5.30
2023-02-27T05:33:47.823Z,-5.50
2023-02-27T07:01:03.875Z,-4.40
2023-02-27T07:03:40.248Z,-4.20
2023-02-27T07:07:36.418Z,-4.00
2023-02-27T07:09:42.692Z,-3.80
2023-02-27T07:12:16.115Z,-3.60
2023-02-27T07:14:47.418Z,-3.40
2023-02-27T07:17:19.032Z,-3.10
2023-02-27T07:19:52.197Z,-2.90
2023-02-27T07:22:20.805Z,-2.70
2023-02-27T07:24:49.209Z,-2.50
2023-02-27T07:27:20.822Z,-2.40
2023-02-27T07:29:49.466Z,-2.30
2023-02-27T07:32:18.383Z,-2.20
2023-02-27T07:34:46.924Z,-2.20
2023-02-27T07:37:16.886Z,-2.10
2023-02-27T07:39:45.980Z,-1.90
2023-02-27T07:42:17.654Z,-1.60
2023-02-27T07:44:46.321Z,-1.00
2023-02-27T07:47:14.604Z,-0.50
2023-02-27T07:49:42.856Z,0.20
2023-02-27T07:52:11.505Z,1.00
2023-02-27T07:54:41.282Z,2.10
2023-02-27T07:57:09.523Z,3.00
2023-02-27T07:59:37.857Z,3.20
2023-02-27T08:02:06.441Z,3.10
2023-02-27T08:04:34.825Z,2.70
2023-02-27T08:07:06.253Z,2.30
2023-02-27T08:09:34.551Z,1.90
2023-02-27T08:12:04.744Z,1.70
2023-02-27T08:14:33.059Z,1.60
2023-02-27T08:17:02.302Z,1.40
2023-02-27T08:19:31.057Z,1.40
2023-02-27T08:22:00.848Z,1.40
2023-02-27T08:24:29.320Z,1.50
2023-02-27T08:26:57.620Z,1.50
2023-02-27T08:29:28.288Z,1.60
2023-02-27T08:31:57.158Z,1.60
2023-02-27T08:37:30.416Z,1.70
2023-02-27T08:40:01.010Z,1.60
2023-02-27T08:42:29.606Z,1.80
2023-02-27T08:44:59.598Z,2.00
2023-02-27T08:47:30.033Z,2.00
2023-02-27T09:18:18.286Z,1.00
2023-02-27T09:20:46.807Z,1.00
2023-02-27T09:23:17.051Z,1.10
2023-02-27T09:25:47.844Z,1.10
2023-02-27T09:28:18.717Z,1.10
2023-02-27T09:30:47.232Z,1.30
2023-02-27T09:33:17.233Z,1.70
2023-02-27T09:35:45.787Z,2.10
2023-02-27T09:38:15.220Z,2.40
2023-02-27T09:40:45.971Z,2.60
2023-02-27T09:43:20.014Z,2.70
2023-02-27T09:45:51.343Z,2.70
2023-02-27T09:48:31.742Z,2.50
2023-02-27T09:51:01.072Z,2.40
2023-02-27T09:53:35.956Z,2.40
2023-02-27T09:56:09.312Z,2.50
2023-02-27T09:58:47.136Z,2.50
2023-02-27T10:01:20.520Z,2.50
2023-02-27T10:04:24.404Z,2.60
2023-02-27T10:06:59.676Z,2.40
2023-02-27T10:09:38.765Z,2.30
2023-02-27T10:12:30.750Z,2.10
2023-02-27T10:15:06.004Z,2.10
2023-02-27T10:17:40.890Z,2.00
2023-02-27T10:20:25.689Z,2.10
2023-02-27T10:22:58.135Z,2.20
2023-02-27T10:25:31.819Z,2.30
2023-02-27T10:28:17.149Z,2.30
2023-02-27T10:30:49.205Z,2.00
2023-02-27T10:33:26.746Z,2.00
2023-02-27T10:35:56.459Z,2.10
2023-02-27T10:38:33.051Z,2.10
2023-02-27T10:41:03.069Z,2.20
2023-02-27T10:43:32.327Z,1.70
2023-02-27T10:46:03.960Z,1.40
2023-02-27T10:48:47.466Z,1.60
2023-02-27T10:51:51.695Z,2.00
2023-02-27T10:54:37.641Z,2.30
2023-02-27T11:00:54.573Z,1.70
2023-02-27T11:03:28.863Z,1.60
2023-02-27T11:05:59.372Z,2.00
2023-02-27T11:08:31.300Z,2.00
2023-02-27T11:11:04.192Z,2.40
2023-02-27T11:13:34.596Z,2.80
2023-02-27T11:16:09.755Z,3.00
2023-02-27T11:18:40.073Z,3.00
2023-02-27T11:21:20.100Z,2.90
2023-02-27T11:23:58.829Z,3.10
2023-02-27T11:26:37.351Z,3.10
2023-02-27T11:29:09.468Z,3.10
2023-02-27T11:31:39.348Z,3.20
2023-02-27T11:34:08.702Z,3.20
2023-02-27T11:36:42.950Z,3.30
2023-02-27T11:39:24.032Z,3.20
2023-02-27T11:41:54.310Z,3.30
2023-02-27T11:44:49.731Z,3.50
2023-02-27T11:47:24.064Z,3.60
2023-02-27T11:50:10.047Z,3.60
2023-02-27T11:52:45.880Z,4.00
2023-02-27T11:55:18.155Z,4.00
2023-02-27T11:57:50.379Z,3.80
2023-02-27T12:00:22.015Z,3.60
2023-02-27T12:03:00.085Z,3.30
2023-02-27T12:05:32.535Z,3.10
2023-02-27T12:08:05.713Z,3.00
2023-02-27T12:10:43.749Z,3.20
2023-02-27T12:13:18.915Z,3.30
2023-02-27T12:15:51.682Z,3.30
2023-02-27T12:18:24.994Z,3.20
2023-02-27T12:20:58.312Z,3.30
2023-02-27T12:23:35.038Z,3.50
2023-02-27T12:26:05.705Z,3.70
2023-02-27T12:28:52.246Z,3.40
2023-02-27T12:31:39.897Z,3.30
2023-02-27T12:34:18.128Z,2.80
2023-02-27T12:36:48.750Z,2.20
2023-02-27T12:39:20.703Z,2.20
2023-02-27T12:42:17.237Z,2.60
2023-02-27T12:45:01.400Z,2.50
2023-02-27T12:47:39.912Z,2.60
2023-02-27T12:50:13.171Z,2.70
2023-02-27T12:52:55.669Z,2.80
2023-02-27T12:55:28.373Z,3.00
2023-02-27T12:58:26.514Z,2.90
2023-02-27T13:01:01.960Z,2.90
2023-02-27T13:03:36.559Z,3.20
2023-02-27T13:06:13.984Z,3.50
2023-02-27T13:09:21.252Z,3.30
2023-02-27T13:11:58.700Z,3.20
2023-02-27T13:14:36.054Z,2.90
2023-02-27T13:17:19.530Z,2.90
2023-02-27T13:19:53.865Z,3.00
2023-02-27T13:22:31.526Z,3.10
2023-02-27T13:25:03.730Z,3.20
2023-02-27T13:27:35.895Z,3.50
2023-02-27T13:30:15.129Z,3.60
2023-02-27T13:32:51.348Z,3.20
2023-02-27T13:35:29.503Z,2.90
2023-02-27T13:38:01.645Z,2.80
2023-02-27T13:40:35.759Z,2.50
2023-02-27T13:43:07.625Z,2.40
2023-02-27T13:45:54.728Z,2.50
2023-02-27T13:48:41.222Z,2.60
2023-02-27T13:51:13.070Z,2.60
2023-02-27T13:53:41.361Z,2.60
2023-02-27T13:56:26.657Z,2.60
2023-02-27T13:58:56.966Z,2.60
2023-02-27T14:01:29.607Z,2.30
2023-02-27T14:04:05.351Z,2.20
2023-02-27T14:06:33.757Z,2.10
2023-02-27T14:09:14.451Z,2.00
2023-02-27T14:11:54.394Z,1.90
2023-02-27T14:14:45.986Z,1.90
2023-02-27T14:17:15.766Z,1.80
2023-02-27T14:19:59.271Z,1.30
2023-02-27T14:22:41.198Z,1.10
2023-02-27T14:25:18.573Z,0.90
2023-02-27T14:27:52.087Z,0.80
2023-02-27T14:30:48.035Z,0.90
2023-02-27T14:33:39.715Z,0.80
2023-02-27T14:36:18.214Z,0.70
2023-02-27T14:38:49.389Z,0.60
2023-02-27T14:41:34.166Z,0.60
2023-02-27T14:44:02.673Z,0.60
2023-02-27T14:46:33.419Z,0.60
2023-02-27T14:49:07.139Z,0.60
2023-02-27T14:51:38.751Z,0.50
2023-02-27T14:54:13.968Z,0.50
2023-02-27T14:56:43.044Z,0.60
2023-02-27T14:59:25.455Z,0.70
2023-02-27T15:01:54.813Z,0.60
2023-02-27T15:04:27.366Z,0.60
2023-02-27T15:06:58.377Z,0.60
2023-02-27T15:09:38.424Z,0.50
2023-02-27T15:12:07.101Z,0.40
2023-02-27T15:14:38.222Z,0.40
2023-02-27T15:17:16.774Z,0.40
2023-02-27T15:19:49.135Z,0.40
2023-02-27T15:22:37.581Z,0.40
2023-02-27T15:25:08.100Z,0.40
2023-02-27T15:27:38.249Z,0.40
2023-02-27T15:30:08.220Z,0.40
2023-02-27T15:32:39.835Z,0.30
2023-02-27T15:35:16.413Z,0.30
2023-02-27T15:37:53.025Z,0.30
2023-02-27T15:40:24.845Z,0.20
2023-02-27T15:42:54.101Z,0.10
2023-02-27T15:45:25.363Z,0.10
2023-02-27T15:47:53.994Z,0.00
2023-02-27T15:50:28.782Z,-0.20
2023-02-27T15:53:09.939Z,-0.40
2023-02-27T15:55:43.117Z,-0.60
2023-02-27T15:58:24.366Z,-0.90
2023-02-27T16:01:00.647Z,-1.00
2023-02-27T16:03:35.326Z,-1.00
2023-02-27T16:06:04.417Z,-1.10
2023-02-27T16:08:37.059Z,-1.10
2023-02-27T16:11:05.642Z,-1.10
2023-02-27T16:13:38.848Z,-1.10
2023-02-27T16:16:22.736Z,-1.10
2023-02-27T16:18:52.827Z,-1.10
2023-02-27T16:21:25.767Z,-1.20
2023-02-27T16:23:56.045Z,-1.30
2023-02-27T16:26:30.873Z,-1.30
2023-02-27T16:29:02.530Z,-1.40
2023-02-27T16:31:33.021Z,-1.40
2023-02-27T16:34:15.576Z,-1.50
2023-02-27T16:36:53.529Z,-1.50
2023-02-27T16:39:23.288Z,-1.50
2023-02-27T16:41:53.932Z,-1.60
2023-02-27T16:44:23.781Z,-1.60
2023-02-27T16:47:06.744Z,-1.60
2023-02-27T16:49:35.106Z,-1.70
2023-02-27T16:52:05.566Z,-1.70
2023-02-27T16:54:35.442Z,-1.70
2023-02-27T16:57:04.710Z,-1.60
2023-02-27T16:59:36.137Z,-1.60
2023-02-27T17:02:09.100Z,-1.70
2023-02-27T17:04:37.458Z,-1.60
2023-02-27T17:07:06.996Z,-1.60
2023-02-27T17:09:39.779Z,-1.70
2023-02-27T17:12:08.179Z,-1.70
2023-02-27T17:14:36.458Z,-1.70
2023-02-27T17:17:05.130Z,-1.70
2023-02-27T17:19:36.404Z,-1.70
2023-02-27T17:22:04.731Z,-1.70
2023-02-27T17:24:35.586Z,-1.80
2023-02-27T17:27:05.434Z,-1.80
2023-02-27T17:29:38.533Z,-1.80
2023-02-27T17:32:07.615Z,-1.90
2023-02-27T17:34:35.908Z,-1.90
2023-02-27T17:37:07.549Z,-2.00
2023-02-27T17:39:35.827Z,-2.00
2023-02-27T17:42:05.765Z,-2.10
2023-02-27T17:44:34.013Z,-2.20
2023-02-27T17:47:02.273Z,-2.20
2023-02-27T17:49:48.337Z,-2.20
2023-02-27T17:52:17.356Z,-2.20
2023-02-27T17:54:55.724Z,-2.20
2023-02-27T17:57:27.163Z,-2.20
2023-02-27T17:59:55.833Z,-2.20
2023-02-27T18:02:25.630Z,-2.20
2023-02-27T18:04:57.579Z,-2.20
2023-02-27T18:07:29.240Z,-2.20
2023-02-27T18:10:01.325Z,-2.20
2023-02-27T18:12:34.310Z,-2.20
2023-02-27T18:15:07.321Z,-2.20
2023-02-27T18:17:45.039Z,-2.20
2023-02-27T18:20:16.933Z,-2.20
2023-02-27T18:22:45.676Z,-2.20
2023-02-27T18:25:16.905Z,-2.20
2023-02-27T18:27:52.770Z,-2.20
2023-02-27T18:30:22.010Z,-2.20
2023-02-27T18:32:52.211Z,-2.20
2023-02-27T18:35:20.810Z,-2.30
2023-02-27T18:37:55.365Z,-2.30
2023-02-27T18:40:25.144Z,-2.30
2023-02-27T18:43:10.358Z,-2.40
2023-02-27T18:45:39.219Z,-2.40
2023-02-27T18:48:08.406Z,-2.40
2023-02-27T18:50:40.429Z,-2.50
2023-02-27T18:53:19.049Z,-2.50
2023-02-27T18:55:50.601Z,-2.60
2023-02-27T18:58:26.043Z,-2.60
2023-02-27T19:01:14.433Z,-2.60
2023-02-27T19:03:42.889Z,-2.70
2023-02-27T19:06:15.425Z,-2.70
2023-02-27T19:08:51.220Z,-2.80
2023-02-27T19:11:33.548Z,-2.80
2023-02-27T19:14:09.433Z,-2.90
2023-02-27T19:16:52.337Z,-2.90
2023-02-27T19:19:21.283Z,-2.90
2023-02-27T19:21:49.653Z,-3.00
2023-02-27T19:24:23.842Z,-3.10
2023-02-27T19:26:55.954Z,-3.10
2023-02-27T19:29:33.599Z,-3.20
2023-02-27T19:32:04.387Z,-3.20
2023-02-27T19:34:40.476Z,-3.30
2023-02-27T19:37:12.302Z,-3.30
2023-02-27T19:39:44.540Z,-3.40
2023-02-27T19:42:16.336Z,-3.40
2023-02-27T19:44:56.908Z,-3.40
2023-02-27T19:47:29.009Z,-3.40
2023-02-27T19:50:00.628Z,-3.40
2023-02-27T19:52:29.169Z,-3.40
2023-02-27T19:55:03.000Z,-3.40
2023-02-27T19:58:02.683Z,-3.40
2023-02-27T20:00:38.202Z,-3.40
2023-02-27T20:03:17.767Z,-3.50
2023-02-27T20:05:54.994Z,-3.50
2023-02-27T20:08:29.233Z,-3.50
2023-02-27T20:11:14.766Z,-3.40
2023-02-27T20:13:59.740Z,-3.40
2023-02-27T20:16:38.002Z,-3.40
2023-02-27T20:19:14.758Z,-3.30
2023-02-27T20:21:44.990Z,-3.30
2023-02-27T20:24:30.283Z,-3.30
2023-02-27T20:27:03.049Z,-3.30
2023-02-27T20:29:41.324Z,-3.30
2023-02-27T20:32:32.545Z,-3.30
2023-02-27T20:35:17.039Z,-3.30
2023-02-27T20:37:48.603Z,-3.30
2023-02-27T20:40:17.877Z,-3.30
2023-02-27T20:42:56.898Z,-3.30
2023-02-27T20:45:29.638Z,-3.30
2023-02-27T20:48:02.273Z,-3.30
2023-02-27T20:50:36.773Z,-3.30
2023-02-27T20:53:05.317Z,-3.30
2023-02-27T20:55:49.599Z,-3.30
2023-02-27T20:58:18.283Z,-3.30
2023-02-27T21:00:56.884Z,-3.30
2023-02-27T21:03:51.548Z,-3.30
2023-02-27T21:06:20.779Z,-3.30
2023-02-27T21:08:55.598Z,-3.30
2023-02-27T21:11:27.927Z,-3.20
2023-02-27T21:14:00.042Z,-3.20
2023-02-27T21:16:55.239Z,-3.20
2023-02-27T21:19:26.079Z,-3.20
2023-02-27T21:22:17.307Z,-3.20
2023-02-27T21:24:46.919Z,-3.10
2023-02-27T21:27:24.646Z,-3.10
2023-02-27T21:29:53.321Z,-3.10
2023-02-27T21:32:25.054Z,-3.10
2023-02-27T21:35:09.259Z,-3.10
2023-02-27T21:37:46.842Z,-3.10
2023-02-27T21:40:21.162Z,-3.10
2023-02-27T21:42:50.890Z,-3.10
2023-02-27T21:45:19.754Z,-3.10
2023-02-27T21:47:49.783Z,-3.00
2023-02-27T21:50:40.229Z,-3.00
2023-02-27T21:53:14.440Z,-3.00
2023-02-27T21:55:45.806Z,-3.00
2023-02-27T21:58:17.388Z,-3.00
2023-02-27T22:00:50.462Z,-3.00
2023-02-27T22:03:37.137Z,-3.00
2023-02-27T22:06:12.599Z,-3.00
2023-02-27T22:08:58.369Z,-3.00
2023-02-27T22:11:51.395Z,-3.10
2023-02-27T22:14:22.003Z,-3.00
2023-02-27T22:17:08.275Z,-3.00
2023-02-27T22:19:59.138Z,-3.00
2023-02-27T22:22:35.560Z,-3.10
2023-02-27T22:25:09.799Z,-3.00
2023-02-27T22:27:41.919Z,-3.00
2023-02-27T22:30:20.832Z,-3.00
2023-02-27T22:32:49.946Z,-3.00
2023-02-27T22:35:27.654Z,-3.10
2023-02-27T22:38:04.192Z,-3.00
2023-02-27T22:40:47.501Z,-3.10
2023-02-27T22:43:28.316Z,-3.10
2023-02-27T22:45:57.090Z,-3.10
2023-02-27T22:48:26.335Z,-3.10
2023-02-27T22:51:20.682Z,-3.10
2023-02-27T22:53:56.732Z,-3.10
2023-02-27T22:56:30.567Z,-3.10
2023-02-27T22:59:02.284Z,-3.10
2023-02-27T23:01:36.420Z,-3.10
2023-02-27T23:04:10.304Z,-3.10
2023-02-27T23:06:43.162Z,-3.10
2023-02-27T23:09:20.238Z,-3.10
2023-02-27T23:11:50.130Z,-3.10
2023-02-27T23:14:21.194Z,-3.10
2023-02-27T23:16:51.248Z,-3.10
2023-02-27T23:19:39.131Z,-3.20
2023-02-27T23:22:10.734Z,-3.10
2023-02-27T23:25:23.427Z,-3.10
2023-02-27T23:28:01.678Z,-3.10
2023-02-27T23:30:34.339Z,-3.10
2023-02-27T23:33:14.761Z,-3.20
2023-02-27T23:35:59.952Z,-3.30
2023-02-27T23:38:29.166Z,-3.30
2023-02-27T23:41:00.393Z,-3.30
2023-02-27T23:43:31.307Z,-3.30
2023-02-27T23:46:08.464Z,-3.30
2023-02-27T23:48:43.077Z,-3.30
2023-02-27T23:51:32.801Z,-3.30
2023-02-27T23:54:23.109Z,-3.30
2023-02-27T23:57:03.526Z,-3.30
2023-02-27T23:59:53.418Z,-3.30
